sensor_id;sensor_type;location;lat;lon;timestamp;temperature;humidity
18733;DHT22;9495;51.210;2.934;2023-12-29T00:00:25;19.00;99.90
18733;DHT22;9495;51.210;2.934;2023-12-29T00:02:54;19.00;99.90
18733;DHT22;9495;51.210;2.934;2023-12-29T00:05:23;18.80;99.90
18733;DHT22;9495;51.210;2.934;2023-12-29T00:07:51;18.90;99.90
18733;DHT22;9495;51.210;2.934;2023-12-29T00:10:20;18.40;99.90
18733;DHT22;9495;51.210;2.934;2023-12-29T00:12:48;18.60;99.90
18733;DHT22;9495;51.210;2.934;2023-12-29T00:15:17;18.60;99.90
18733;DHT22;9495;51.210;2.934;2023-12-29T00:17:46;18.60;99.90
18733;DHT22;9495;51.210;2.934;2023-12-29T00:20:16;18.80;99.90
18733;DHT22;9495;51.210;2.934;2023-12-29T00:23:04;19.00;99.90
18733;DHT22;9495;51.210;2.934;2023-12-29T00:25:36;18.90;99.90
18733;DHT22;9495;51.210;2.934;2023-12-29T00:28:05;18.90;99.90
18733;DHT22;9495;51.210;2.934;2023-12-29T00:30:38;18.90;99.90
18733;DHT22;9495;51.210;2.934;2023-12-29T00:33:23;18.80;99.90
18733;DHT22;9495;51.210;2.934;2023-12-29T00:35:52;18.70;99.90
18733;DHT22;9495;51.210;2.934;2023-12-29T00:38:22;19.00;99.90
18733;DHT22;9495;51.210;2.934;2023-12-29T00:40:51;18.90;99.90
18733;DHT22;9495;51.210;2.934;2023-12-29T00:43:19;18.40;99.90
18733;DHT22;9495;51.210;2.934;2023-12-29T00:45:48;18.70;99.90
18733;DHT22;9495;51.210;2.934;2023-12-29T00:48:17;18.80;99.90
18733;DHT22;9495;51.210;2.934;2023-12-29T00:50:46;18.90;99.90
18733;DHT22;9495;51.210;2.934;2023-12-29T00:53:14;18.80;99.90
18733;DHT22;9495;51.210;2.934;2023-12-29T00:55:44;18.80;99.90
18733;DHT22;9495;51.210;2.934;2023-12-29T00:58:13;18.70;99.90
18733;DHT22;9495;51.210;2.934;2023-12-29T01:00:41;18.70;99.90
18733;DHT22;9495;51.210;2.934;2023-12-29T01:03:10;18.10;99.90
18733;DHT22;9495;51.210;2.934;2023-12-29T01:05:38;18.20;99.90
18733;DHT22;9495;51.210;2.934;2023-12-29T01:08:07;17.90;99.90
18733;DHT22;9495;51.210;2.934;2023-12-29T01:10:36;18.20;99.90
18733;DHT22;9495;51.210;2.934;2023-12-29T01:13:06;18.10;99.90
18733;DHT22;9495;51.210;2.934;2023-12-29T01:15:35;18.30;99.90
18733;DHT22;9495;51.210;2.934;2023-12-29T01:18:04;18.60;99.90
18733;DHT22;9495;51.210;2.934;2023-12-29T01:20:33;18.70;99.90
18733;DHT22;9495;51.210;2.934;2023-12-29T01:23:02;18.50;99.90
18733;DHT22;9495;51.210;2.934;2023-12-29T01:25:30;18.90;99.90
18733;DHT22;9495;51.210;2.934;2023-12-29T01:27:59;18.90;99.90
18733;DHT22;9495;51.210;2.934;2023-12-29T01:30:29;18.30;99.90
18733;DHT22;9495;51.210;2.934;2023-12-29T01:32:57;18.50;99.90
18733;DHT22;9495;51.210;2.934;2023-12-29T01:35:26;18.30;99.90
18733;DHT22;9495;51.210;2.934;2023-12-29T01:37:55;18.50;99.90
18733;DHT22;9495;51.210;2.934;2023-12-29T01:40:24;18.50;99.90
18733;DHT22;9495;51.210;2.934;2023-12-29T01:42:53;18.50;99.90
18733;DHT22;9495;51.210;2.934;2023-12-29T01:45:22;18.20;99.90
18733;DHT22;9495;51.210;2.934;2023-12-29T01:47:52;18.40;99.90
18733;DHT22;9495;51.210;2.934;2023-12-29T01:50:21;18.30;99.90
18733;DHT22;9495;51.210;2.934;2023-12-29T01:52:51;18.50;99.90
18733;DHT22;9495;51.210;2.934;2023-12-29T01:55:21;18.20;99.90
18733;DHT22;9495;51.210;2.934;2023-12-29T01:57:50;18.40;99.90
18733;DHT22;9495;51.210;2.934;2023-12-29T02:00:19;18.20;99.90
18733;DHT22;9495;51.210;2.934;2023-12-29T02:02:49;18.40;99.90
18733;DHT22;9495;51.210;2.934;2023-12-29T02:05:21;17.90;99.90
18733;DHT22;9495;51.210;2.934;2023-12-29T02:07:52;18.00;99.90
18733;DHT22;9495;51.210;2.934;2023-12-29T02:10:21;17.80;99.90
18733;DHT22;9495;51.210;2.934;2023-12-29T02:12:50;18.20;99.90
18733;DHT22;9495;51.210;2.934;2023-12-29T02:15:21;17.80;99.90
18733;DHT22;9495;51.210;2.934;2023-12-29T02:17:56;17.70;99.90
18733;DHT22;9495;51.210;2.934;2023-12-29T02:20:27;17.90;99.90
18733;DHT22;9495;51.210;2.934;2023-12-29T02:22:56;17.90;99.90
18733;DHT22;9495;51.210;2.934;2023-12-29T02:25:26;18.10;99.90
18733;DHT22;9495;51.210;2.934;2023-12-29T02:27:59;17.90;99.90
18733;DHT22;9495;51.210;2.934;2023-12-29T02:30:36;17.70;99.90
18733;DHT22;9495;51.210;2.934;2023-12-29T02:33:07;17.70;99.90
18733;DHT22;9495;51.210;2.934;2023-12-29T02:35:41;17.50;99.90
18733;DHT22;9495;51.210;2.934;2023-12-29T02:38:11;17.80;99.90
18733;DHT22;9495;51.210;2.934;2023-12-29T02:40:42;17.60;99.90
18733;DHT22;9495;51.210;2.934;2023-12-29T02:43:10;17.50;99.90
18733;DHT22;9495;51.210;2.934;2023-12-29T02:45:39;17.90;99.90
18733;DHT22;9495;51.210;2.934;2023-12-29T02:48:08;17.60;99.90
18733;DHT22;9495;51.210;2.934;2023-12-29T02:50:36;17.60;99.90
18733;DHT22;9495;51.210;2.934;2023-12-29T02:53:05;17.90;99.90
18733;DHT22;9495;51.210;2.934;2023-12-29T02:55:34;17.70;99.90
18733;DHT22;9495;51.210;2.934;2023-12-29T02:58:04;17.90;99.90
18733;DHT22;9495;51.210;2.934;2023-12-29T03:00:32;17.60;99.90
18733;DHT22;9495;51.210;2.934;2023-12-29T03:03:01;17.90;99.90
18733;DHT22;9495;51.210;2.934;2023-12-29T03:05:30;17.70;99.90
18733;DHT22;9495;51.210;2.934;2023-12-29T03:07:58;17.70;99.90
18733;DHT22;9495;51.210;2.934;2023-12-29T03:10:28;17.90;99.90
18733;DHT22;9495;51.210;2.934;2023-12-29T03:12:57;18.20;99.90
18733;DHT22;9495;51.210;2.934;2023-12-29T03:15:27;18.20;99.90
18733;DHT22;9495;51.210;2.934;2023-12-29T03:17:55;18.40;99.90
18733;DHT22;9495;51.210;2.934;2023-12-29T03:20:24;18.10;99.90
18733;DHT22;9495;51.210;2.934;2023-12-29T03:22:53;18.30;99.90
18733;DHT22;9495;51.210;2.934;2023-12-29T03:25:22;18.10;99.90
18733;DHT22;9495;51.210;2.934;2023-12-29T03:27:51;18.20;99.90
18733;DHT22;9495;51.210;2.934;2023-12-29T03:30:20;18.40;99.90
18733;DHT22;9495;51.210;2.934;2023-12-29T03:32:50;18.40;99.90
18733;DHT22;9495;51.210;2.934;2023-12-29T03:35:18;18.40;99.90
18733;DHT22;9495;51.210;2.934;2023-12-29T03:37:46;18.10;99.90
18733;DHT22;9495;51.210;2.934;2023-12-29T03:40:15;18.20;99.90
18733;DHT22;9495;51.210;2.934;2023-12-29T03:42:44;18.10;99.90
18733;DHT22;9495;51.210;2.934;2023-12-29T03:45:13;17.50;99.90
18733;DHT22;9495;51.210;2.934;2023-12-29T03:47:41;17.40;99.90
18733;DHT22;9495;51.210;2.934;2023-12-29T03:50:11;17.40;99.90
18733;DHT22;9495;51.210;2.934;2023-12-29T03:52:40;17.20;99.90
18733;DHT22;9495;51.210;2.934;2023-12-29T03:55:09;17.00;99.90
18733;DHT22;9495;51.210;2.934;2023-12-29T03:57:38;17.00;99.90
18733;DHT22;9495;51.210;2.934;2023-12-29T04:00:10;17.70;99.90
18733;DHT22;9495;51.210;2.934;2023-12-29T04:02:39;17.70;99.90
18733;DHT22;9495;51.210;2.934;2023-12-29T04:05:09;18.00;99.90
18733;DHT22;9495;51.210;2.934;2023-12-29T04:07:40;17.60;99.90
18733;DHT22;9495;51.210;2.934;2023-12-29T04:10:09;17.40;99.90
18733;DHT22;9495;51.210;2.934;2023-12-29T04:12:38;17.60;99.90
18733;DHT22;9495;51.210;2.934;2023-12-29T04:15:07;18.10;99.90
18733;DHT22;9495;51.210;2.934;2023-12-29T04:17:35;17.90;99.90
18733;DHT22;9495;51.210;2.934;2023-12-29T04:20:05;18.10;99.90
18733;DHT22;9495;51.210;2.934;2023-12-29T04:22:34;18.20;99.90
18733;DHT22;9495;51.210;2.934;2023-12-29T04:25:04;18.20;99.90
18733;DHT22;9495;51.210;2.934;2023-12-29T04:27:33;18.00;99.90
18733;DHT22;9495;51.210;2.934;2023-12-29T04:30:02;18.20;99.90
18733;DHT22;9495;51.210;2.934;2023-12-29T04:32:31;18.10;99.90
18733;DHT22;9495;51.210;2.934;2023-12-29T04:34:59;18.00;99.90
18733;DHT22;9495;51.210;2.934;2023-12-29T04:37:28;18.30;99.90
18733;DHT22;9495;51.210;2.934;2023-12-29T04:39:57;18.10;99.90
18733;DHT22;9495;51.210;2.934;2023-12-29T04:42:26;18.50;99.90
18733;DHT22;9495;51.210;2.934;2023-12-29T04:44:55;18.00;99.90
18733;DHT22;9495;51.210;2.934;2023-12-29T04:47:23;18.20;99.90
18733;DHT22;9495;51.210;2.934;2023-12-29T04:49:52;17.90;99.90
18733;DHT22;9495;51.210;2.934;2023-12-29T04:52:21;18.00;99.90
18733;DHT22;9495;51.210;2.934;2023-12-29T04:54:49;17.90;99.90
18733;DHT22;9495;51.210;2.934;2023-12-29T04:57:19;17.80;99.90
18733;DHT22;9495;51.210;2.934;2023-12-29T04:59:49;18.00;99.90
18733;DHT22;9495;51.210;2.934;2023-12-29T05:02:18;18.20;99.90
18733;DHT22;9495;51.210;2.934;2023-12-29T05:04:47;18.20;99.90
18733;DHT22;9495;51.210;2.934;2023-12-29T05:07:15;17.90;99.90
18733;DHT22;9495;51.210;2.934;2023-12-29T05:09:44;17.90;99.90
18733;DHT22;9495;51.210;2.934;2023-12-29T05:12:13;18.20;99.90
18733;DHT22;9495;51.210;2.934;2023-12-29T05:14:41;18.50;99.90
18733;DHT22;9495;51.210;2.934;2023-12-29T05:17:11;18.60;99.90
18733;DHT22;9495;51.210;2.934;2023-12-29T05:19:39;18.50;99.90
18733;DHT22;9495;51.210;2.934;2023-12-29T05:22:08;18.70;99.90
18733;DHT22;9495;51.210;2.934;2023-12-29T05:24:40;18.60;99.90
18733;DHT22;9495;51.210;2.934;2023-12-29T05:27:08;18.70;99.90
18733;DHT22;9495;51.210;2.934;2023-12-29T05:29:37;18.70;99.90
18733;DHT22;9495;51.210;2.934;2023-12-29T05:32:06;18.50;99.90
18733;DHT22;9495;51.210;2.934;2023-12-29T05:34:36;18.10;99.90
18733;DHT22;9495;51.210;2.934;2023-12-29T05:37:05;18.40;99.90
18733;DHT22;9495;51.210;2.934;2023-12-29T05:39:34;18.20;99.90
18733;DHT22;9495;51.210;2.934;2023-12-29T05:42:03;18.20;99.90
18733;DHT22;9495;51.210;2.934;2023-12-29T05:44:31;17.80;99.90
18733;DHT22;9495;51.210;2.934;2023-12-29T05:47:00;18.30;99.90
18733;DHT22;9495;51.210;2.934;2023-12-29T05:49:28;18.10;99.90
18733;DHT22;9495;51.210;2.934;2023-12-29T05:52:00;17.90;99.90
18733;DHT22;9495;51.210;2.934;2023-12-29T05:54:29;18.30;99.90
18733;DHT22;9495;51.210;2.934;2023-12-29T05:56:57;18.20;99.90
18733;DHT22;9495;51.210;2.934;2023-12-29T05:59:26;17.70;99.90
18733;DHT22;9495;51.210;2.934;2023-12-29T06:01:55;18.10;99.90
18733;DHT22;9495;51.210;2.934;2023-12-29T06:04:24;18.30;99.90
18733;DHT22;9495;51.210;2.934;2023-12-29T06:06:52;18.50;99.90
18733;DHT22;9495;51.210;2.934;2023-12-29T06:09:22;18.20;99.90
18733;DHT22;9495;51.210;2.934;2023-12-29T06:11:51;18.30;99.90
18733;DHT22;9495;51.210;2.934;2023-12-29T06:14:19;18.20;99.90
18733;DHT22;9495;51.210;2.934;2023-12-29T06:16:48;18.60;99.90
18733;DHT22;9495;51.210;2.934;2023-12-29T06:19:17;18.70;99.90
18733;DHT22;9495;51.210;2.934;2023-12-29T06:21:45;18.60;99.90
18733;DHT22;9495;51.210;2.934;2023-12-29T06:24:14;18.60;99.90
18733;DHT22;9495;51.210;2.934;2023-12-29T06:26:45;18.40;99.90
18733;DHT22;9495;51.210;2.934;2023-12-29T06:29:13;18.10;99.90
18733;DHT22;9495;51.210;2.934;2023-12-29T06:31:42;18.30;99.90
18733;DHT22;9495;51.210;2.934;2023-12-29T06:34:11;18.50;99.90
18733;DHT22;9495;51.210;2.934;2023-12-29T06:36:39;18.30;99.90
18733;DHT22;9495;51.210;2.934;2023-12-29T06:39:08;18.30;99.90
18733;DHT22;9495;51.210;2.934;2023-12-29T06:41:37;17.90;99.90
18733;DHT22;9495;51.210;2.934;2023-12-29T06:44:07;17.90;99.90
18733;DHT22;9495;51.210;2.934;2023-12-29T06:46:37;18.10;99.90
18733;DHT22;9495;51.210;2.934;2023-12-29T06:49:05;18.00;99.90
18733;DHT22;9495;51.210;2.934;2023-12-29T06:51:34;18.30;99.90
18733;DHT22;9495;51.210;2.934;2023-12-29T06:54:06;18.20;99.90
18733;DHT22;9495;51.210;2.934;2023-12-29T06:56:35;17.80;99.90
18733;DHT22;9495;51.210;2.934;2023-12-29T06:59:03;18.00;99.90
18733;DHT22;9495;51.210;2.934;2023-12-29T07:01:33;17.90;99.90
18733;DHT22;9495;51.210;2.934;2023-12-29T07:04:02;17.70;99.90
18733;DHT22;9495;51.210;2.934;2023-12-29T07:06:31;17.80;99.90
18733;DHT22;9495;51.210;2.934;2023-12-29T07:09:00;17.90;99.90
18733;DHT22;9495;51.210;2.934;2023-12-29T07:11:29;17.90;99.90
18733;DHT22;9495;51.210;2.934;2023-12-29T07:13:57;17.50;99.90
18733;DHT22;9495;51.210;2.934;2023-12-29T07:16:26;17.80;99.90
18733;DHT22;9495;51.210;2.934;2023-12-29T07:18:56;18.10;99.90
18733;DHT22;9495;51.210;2.934;2023-12-29T07:21:24;17.70;99.90
18733;DHT22;9495;51.210;2.934;2023-12-29T07:23:53;17.30;99.90
18733;DHT22;9495;51.210;2.934;2023-12-29T07:26:22;18.00;99.90
18733;DHT22;9495;51.210;2.934;2023-12-29T07:28:50;17.90;99.90
18733;DHT22;9495;51.210;2.934;2023-12-29T07:31:21;17.60;99.90
18733;DHT22;9495;51.210;2.934;2023-12-29T07:33:50;17.50;99.90
18733;DHT22;9495;51.210;2.934;2023-12-29T07:36:20;17.30;99.90
18733;DHT22;9495;51.210;2.934;2023-12-29T07:38:49;17.70;99.90
18733;DHT22;9495;51.210;2.934;2023-12-29T07:41:18;17.90;99.90
18733;DHT22;9495;51.210;2.934;2023-12-29T07:43:46;17.90;99.90
18733;DHT22;9495;51.210;2.934;2023-12-29T07:46:24;18.00;99.90
18733;DHT22;9495;51.210;2.934;2023-12-29T07:48:53;17.70;99.90
18733;DHT22;9495;51.210;2.934;2023-12-29T07:51:24;17.90;99.90
18733;DHT22;9495;51.210;2.934;2023-12-29T07:53:52;17.70;99.90
18733;DHT22;9495;51.210;2.934;2023-12-29T07:56:21;17.60;99.90
18733;DHT22;9495;51.210;2.934;2023-12-29T07:58:49;18.10;99.90
18733;DHT22;9495;51.210;2.934;2023-12-29T08:01:17;18.00;99.90
18733;DHT22;9495;51.210;2.934;2023-12-29T08:03:46;17.80;99.90
18733;DHT22;9495;51.210;2.934;2023-12-29T08:06:15;17.70;99.90
18733;DHT22;9495;51.210;2.934;2023-12-29T08:08:45;16.80;99.90
18733;DHT22;9495;51.210;2.934;2023-12-29T08:11:14;17.30;99.90
18733;DHT22;9495;51.210;2.934;2023-12-29T08:13:44;17.50;99.90
18733;DHT22;9495;51.210;2.934;2023-12-29T08:16:12;17.60;99.90
18733;DHT22;9495;51.210;2.934;2023-12-29T08:18:41;17.30;99.90
18733;DHT22;9495;51.210;2.934;2023-12-29T08:21:16;17.00;99.90
18733;DHT22;9495;51.210;2.934;2023-12-29T08:23:48;17.10;99.90
18733;DHT22;9495;51.210;2.934;2023-12-29T08:26:16;17.40;99.90
18733;DHT22;9495;51.210;2.934;2023-12-29T08:28:45;17.50;99.90
18733;DHT22;9495;51.210;2.934;2023-12-29T08:31:15;17.40;99.90
18733;DHT22;9495;51.210;2.934;2023-12-29T08:33:44;17.30;99.90
18733;DHT22;9495;51.210;2.934;2023-12-29T08:36:12;17.10;99.90
18733;DHT22;9495;51.210;2.934;2023-12-29T08:38:41;17.50;99.90
18733;DHT22;9495;51.210;2.934;2023-12-29T08:41:13;17.00;99.90
18733;DHT22;9495;51.210;2.934;2023-12-29T08:43:42;17.80;99.90
18733;DHT22;9495;51.210;2.934;2023-12-29T08:46:11;17.50;99.90
18733;DHT22;9495;51.210;2.934;2023-12-29T08:48:40;17.90;99.90
18733;DHT22;9495;51.210;2.934;2023-12-29T08:51:09;18.00;99.90
18733;DHT22;9495;51.210;2.934;2023-12-29T08:53:38;18.40;99.90
18733;DHT22;9495;51.210;2.934;2023-12-29T08:56:06;18.70;99.90
18733;DHT22;9495;51.210;2.934;2023-12-29T08:58:36;18.70;99.90
18733;DHT22;9495;51.210;2.934;2023-12-29T09:01:05;18.50;99.90
18733;DHT22;9495;51.210;2.934;2023-12-29T09:03:34;18.60;99.90
18733;DHT22;9495;51.210;2.934;2023-12-29T09:06:02;19.10;99.90
18733;DHT22;9495;51.210;2.934;2023-12-29T09:08:31;19.10;99.90
18733;DHT22;9495;51.210;2.934;2023-12-29T09:11:00;19.20;99.90
18733;DHT22;9495;51.210;2.934;2023-12-29T09:13:28;19.40;99.90
18733;DHT22;9495;51.210;2.934;2023-12-29T09:15:59;19.20;99.90
18733;DHT22;9495;51.210;2.934;2023-12-29T09:18:27;19.20;99.90
18733;DHT22;9495;51.210;2.934;2023-12-29T09:20:57;18.80;99.90
18733;DHT22;9495;51.210;2.934;2023-12-29T09:23:26;18.80;99.90
18733;DHT22;9495;51.210;2.934;2023-12-29T09:25:54;18.90;99.90
18733;DHT22;9495;51.210;2.934;2023-12-29T09:28:23;18.60;99.90
18733;DHT22;9495;51.210;2.934;2023-12-29T09:30:52;18.90;99.90
18733;DHT22;9495;51.210;2.934;2023-12-29T09:33:22;18.80;99.90
18733;DHT22;9495;51.210;2.934;2023-12-29T09:35:52;19.20;99.90
18733;DHT22;9495;51.210;2.934;2023-12-29T09:38:20;18.60;99.90
18733;DHT22;9495;51.210;2.934;2023-12-29T09:40:49;19.10;99.90
18733;DHT22;9495;51.210;2.934;2023-12-29T09:43:19;18.80;99.90
18733;DHT22;9495;51.210;2.934;2023-12-29T09:45:48;18.70;99.90
18733;DHT22;9495;51.210;2.934;2023-12-29T09:48:20;18.80;99.90
18733;DHT22;9495;51.210;2.934;2023-12-29T09:50:55;18.70;99.90
18733;DHT22;9495;51.210;2.934;2023-12-29T09:53:24;18.90;99.90
18733;DHT22;9495;51.210;2.934;2023-12-29T09:55:54;19.20;99.90
18733;DHT22;9495;51.210;2.934;2023-12-29T09:58:23;19.40;99.90
18733;DHT22;9495;51.210;2.934;2023-12-29T10:00:53;19.50;99.90
18733;DHT22;9495;51.210;2.934;2023-12-29T10:03:22;19.20;99.90
18733;DHT22;9495;51.210;2.934;2023-12-29T10:05:56;19.20;99.90
18733;DHT22;9495;51.210;2.934;2023-12-29T10:08:27;19.00;99.90
18733;DHT22;9495;51.210;2.934;2023-12-29T10:10:58;19.30;99.90
18733;DHT22;9495;51.210;2.934;2023-12-29T10:13:29;19.40;99.90
18733;DHT22;9495;51.210;2.934;2023-12-29T10:16:07;19.10;99.90
18733;DHT22;9495;51.210;2.934;2023-12-29T10:18:41;19.10;99.90
18733;DHT22;9495;51.210;2.934;2023-12-29T10:21:19;19.00;99.90
18733;DHT22;9495;51.210;2.934;2023-12-29T10:23:55;19.10;99.90
18733;DHT22;9495;51.210;2.934;2023-12-29T10:26:26;19.20;99.90
18733;DHT22;9495;51.210;2.934;2023-12-29T10:28:55;18.70;99.90
18733;DHT22;9495;51.210;2.934;2023-12-29T10:31:24;18.70;99.90
18733;DHT22;9495;51.210;2.934;2023-12-29T10:33:53;18.80;99.90
18733;DHT22;9495;51.210;2.934;2023-12-29T10:36:48;18.70;99.90
18733;DHT22;9495;51.210;2.934;2023-12-29T10:39:17;19.00;99.90
18733;DHT22;9495;51.210;2.934;2023-12-29T10:41:46;19.30;99.90
18733;DHT22;9495;51.210;2.934;2023-12-29T10:44:14;19.10;99.90
18733;DHT22;9495;51.210;2.934;2023-12-29T10:46:43;19.20;99.90
18733;DHT22;9495;51.210;2.934;2023-12-29T10:49:12;19.20;99.90
18733;DHT22;9495;51.210;2.934;2023-12-29T10:51:41;19.50;99.90
18733;DHT22;9495;51.210;2.934;2023-12-29T10:54:19;19.60;99.90
18733;DHT22;9495;51.210;2.934;2023-12-29T10:57:00;19.40;99.90
18733;DHT22;9495;51.210;2.934;2023-12-29T10:59:31;19.60;99.90
18733;DHT22;9495;51.210;2.934;2023-12-29T11:02:01;19.60;99.90
18733;DHT22;9495;51.210;2.934;2023-12-29T11:04:33;19.00;99.90
18733;DHT22;9495;51.210;2.934;2023-12-29T11:07:02;18.80;99.90
18733;DHT22;9495;51.210;2.934;2023-12-29T11:09:33;19.40;99.90
18733;DHT22;9495;51.210;2.934;2023-12-29T11:12:03;19.70;99.90
18733;DHT22;9495;51.210;2.934;2023-12-29T11:14:32;19.90;99.90
18733;DHT22;9495;51.210;2.934;2023-12-29T11:17:01;20.20;99.90
18733;DHT22;9495;51.210;2.934;2023-12-29T11:19:32;20.10;99.90
18733;DHT22;9495;51.210;2.934;2023-12-29T11:22:01;19.50;99.90
18733;DHT22;9495;51.210;2.934;2023-12-29T11:24:32;19.70;99.90
18733;DHT22;9495;51.210;2.934;2023-12-29T11:27:11;19.10;99.90
18733;DHT22;9495;51.210;2.934;2023-12-29T11:29:42;19.20;99.90
18733;DHT22;9495;51.210;2.934;2023-12-29T11:32:14;19.20;99.90
18733;DHT22;9495;51.210;2.934;2023-12-29T11:34:48;19.70;99.90
18733;DHT22;9495;51.210;2.934;2023-12-29T11:37:26;19.60;99.90
18733;DHT22;9495;51.210;2.934;2023-12-29T11:40:04;19.80;99.90
18733;DHT22;9495;51.210;2.934;2023-12-29T11:42:40;20.10;99.90
18733;DHT22;9495;51.210;2.934;2023-12-29T11:45:26;19.70;99.90
18733;DHT22;9495;51.210;2.934;2023-12-29T11:47:56;19.70;99.90
18733;DHT22;9495;51.210;2.934;2023-12-29T11:50:30;19.50;99.90
18733;DHT22;9495;51.210;2.934;2023-12-29T11:52:59;20.00;99.90
18733;DHT22;9495;51.210;2.934;2023-12-29T11:55:33;19.50;99.90
18733;DHT22;9495;51.210;2.934;2023-12-29T11:58:03;20.00;99.90
18733;DHT22;9495;51.210;2.934;2023-12-29T12:00:42;19.80;99.90
18733;DHT22;9495;51.210;2.934;2023-12-29T12:03:15;20.20;99.90
18733;DHT22;9495;51.210;2.934;2023-12-29T12:05:47;20.40;99.90
18733;DHT22;9495;51.210;2.934;2023-12-29T12:08:27;20.50;99.90
18733;DHT22;9495;51.210;2.934;2023-12-29T12:13:44;19.90;99.90
18733;DHT22;9495;51.210;2.934;2023-12-29T12:16:47;20.10;99.90
18733;DHT22;9495;51.210;2.934;2023-12-29T12:19:16;20.10;99.90
18733;DHT22;9495;51.210;2.934;2023-12-29T12:21:48;20.30;99.90
18733;DHT22;9495;51.210;2.934;2023-12-29T12:24:19;20.40;99.90
18733;DHT22;9495;51.210;2.934;2023-12-29T12:26:49;20.20;99.90
18733;DHT22;9495;51.210;2.934;2023-12-29T12:29:18;19.80;99.90
18733;DHT22;9495;51.210;2.934;2023-12-29T12:31:56;20.00;99.90
18733;DHT22;9495;51.210;2.934;2023-12-29T12:34:25;20.20;99.90
18733;DHT22;9495;51.210;2.934;2023-12-29T12:36:55;19.60;99.90
18733;DHT22;9495;51.210;2.934;2023-12-29T12:39:38;19.60;99.90
18733;DHT22;9495;51.210;2.934;2023-12-29T12:42:08;19.70;99.90
18733;DHT22;9495;51.210;2.934;2023-12-29T12:44:39;19.60;99.90
18733;DHT22;9495;51.210;2.934;2023-12-29T12:47:10;19.30;99.90
18733;DHT22;9495;51.210;2.934;2023-12-29T12:49:45;19.20;99.90
18733;DHT22;9495;51.210;2.934;2023-12-29T12:52:14;19.30;99.90
18733;DHT22;9495;51.210;2.934;2023-12-29T12:54:43;18.70;99.90
18733;DHT22;9495;51.210;2.934;2023-12-29T12:57:13;18.80;99.90
18733;DHT22;9495;51.210;2.934;2023-12-29T12:59:46;18.50;99.90
18733;DHT22;9495;51.210;2.934;2023-12-29T13:02:15;18.30;99.90
18733;DHT22;9495;51.210;2.934;2023-12-29T13:04:44;18.50;99.90
18733;DHT22;9495;51.210;2.934;2023-12-29T13:07:15;17.70;99.90
18733;DHT22;9495;51.210;2.934;2023-12-29T13:09:45;17.50;99.90
18733;DHT22;9495;51.210;2.934;2023-12-29T13:12:15;17.80;99.90
18733;DHT22;9495;51.210;2.934;2023-12-29T13:14:44;18.80;99.90
18733;DHT22;9495;51.210;2.934;2023-12-29T13:17:14;18.10;99.90
18733;DHT22;9495;51.210;2.934;2023-12-29T13:19:43;17.80;99.90
18733;DHT22;9495;51.210;2.934;2023-12-29T13:22:13;17.10;99.90
18733;DHT22;9495;51.210;2.934;2023-12-29T13:24:43;16.10;99.90
18733;DHT22;9495;51.210;2.934;2023-12-29T13:27:14;17.00;99.90
18733;DHT22;9495;51.210;2.934;2023-12-29T13:29:44;17.60;99.90
18733;DHT22;9495;51.210;2.934;2023-12-29T13:32:16;17.80;99.90
18733;DHT22;9495;51.210;2.934;2023-12-29T13:34:52;17.90;99.90
18733;DHT22;9495;51.210;2.934;2023-12-29T13:37:30;17.80;99.90
18733;DHT22;9495;51.210;2.934;2023-12-29T13:40:08;18.20;99.90
18733;DHT22;9495;51.210;2.934;2023-12-29T13:42:40;18.00;99.90
18733;DHT22;9495;51.210;2.934;2023-12-29T13:45:10;17.60;99.90
18733;DHT22;9495;51.210;2.934;2023-12-29T13:47:39;17.60;99.90
18733;DHT22;9495;51.210;2.934;2023-12-29T13:50:09;18.00;99.90
18733;DHT22;9495;51.210;2.934;2023-12-29T13:52:39;17.80;99.90
18733;DHT22;9495;51.210;2.934;2023-12-29T13:55:08;18.50;99.90
18733;DHT22;9495;51.210;2.934;2023-12-29T13:57:37;18.50;99.90
18733;DHT22;9495;51.210;2.934;2023-12-29T14:00:17;17.60;99.90
18733;DHT22;9495;51.210;2.934;2023-12-29T14:02:48;18.20;99.90
18733;DHT22;9495;51.210;2.934;2023-12-29T14:05:30;18.80;99.90
18733;DHT22;9495;51.210;2.934;2023-12-29T14:08:04;18.50;99.90
18733;DHT22;9495;51.210;2.934;2023-12-29T14:10:37;18.20;99.90
18733;DHT22;9495;51.210;2.934;2023-12-29T14:13:07;18.30;99.90
18733;DHT22;9495;51.210;2.934;2023-12-29T14:15:37;18.00;99.90
18733;DHT22;9495;51.210;2.934;2023-12-29T14:20:53;18.50;99.90
18733;DHT22;9495;51.210;2.934;2023-12-29T14:23:22;18.70;99.90
18733;DHT22;9495;51.210;2.934;2023-12-29T14:25:51;18.70;99.90
18733;DHT22;9495;51.210;2.934;2023-12-29T14:28:20;18.40;99.90
18733;DHT22;9495;51.210;2.934;2023-12-29T14:31:01;18.70;99.90
18733;DHT22;9495;51.210;2.934;2023-12-29T14:33:30;18.60;99.90
18733;DHT22;9495;51.210;2.934;2023-12-29T14:35:59;18.30;99.90
18733;DHT22;9495;51.210;2.934;2023-12-29T14:38:27;18.40;99.90
18733;DHT22;9495;51.210;2.934;2023-12-29T14:40:56;18.80;99.90
18733;DHT22;9495;51.210;2.934;2023-12-29T14:43:24;19.00;99.90
18733;DHT22;9495;51.210;2.934;2023-12-29T14:45:54;19.10;99.90
18733;DHT22;9495;51.210;2.934;2023-12-29T14:48:22;18.80;99.90
18733;DHT22;9495;51.210;2.934;2023-12-29T14:50:52;18.50;99.90
18733;DHT22;9495;51.210;2.934;2023-12-29T14:53:22;18.50;99.90
18733;DHT22;9495;51.210;2.934;2023-12-29T14:55:52;18.40;99.90
18733;DHT22;9495;51.210;2.934;2023-12-29T14:58:21;18.40;99.90
18733;DHT22;9495;51.210;2.934;2023-12-29T15:00:50;18.60;99.90
18733;DHT22;9495;51.210;2.934;2023-12-29T15:03:20;18.10;99.90
18733;DHT22;9495;51.210;2.934;2023-12-29T15:05:49;18.30;99.90
18733;DHT22;9495;51.210;2.934;2023-12-29T15:08:18;18.50;99.90
18733;DHT22;9495;51.210;2.934;2023-12-29T15:10:47;17.70;99.90
18733;DHT22;9495;51.210;2.934;2023-12-29T15:13:15;18.10;99.90
18733;DHT22;9495;51.210;2.934;2023-12-29T15:15:44;17.90;99.90
18733;DHT22;9495;51.210;2.934;2023-12-29T15:18:13;18.00;99.90
18733;DHT22;9495;51.210;2.934;2023-12-29T15:20:45;17.90;99.90
18733;DHT22;9495;51.210;2.934;2023-12-29T15:23:14;18.00;99.90
18733;DHT22;9495;51.210;2.934;2023-12-29T15:25:42;17.90;99.90
18733;DHT22;9495;51.210;2.934;2023-12-29T15:28:11;17.80;99.90
18733;DHT22;9495;51.210;2.934;2023-12-29T15:30:40;17.90;99.90
18733;DHT22;9495;51.210;2.934;2023-12-29T15:33:08;17.40;99.90
18733;DHT22;9495;51.210;2.934;2023-12-29T15:35:36;17.60;99.90
18733;DHT22;9495;51.210;2.934;2023-12-29T15:38:07;17.90;99.90
18733;DHT22;9495;51.210;2.934;2023-12-29T15:40:35;17.70;99.90
18733;DHT22;9495;51.210;2.934;2023-12-29T15:43:04;17.00;99.90
18733;DHT22;9495;51.210;2.934;2023-12-29T15:45:35;16.60;99.90
18733;DHT22;9495;51.210;2.934;2023-12-29T15:48:04;16.90;99.90
18733;DHT22;9495;51.210;2.934;2023-12-29T15:50:34;17.10;99.90
18733;DHT22;9495;51.210;2.934;2023-12-29T15:53:03;16.50;99.90
18733;DHT22;9495;51.210;2.934;2023-12-29T15:55:33;16.60;99.90
18733;DHT22;9495;51.210;2.934;2023-12-29T15:58:02;16.60;99.90
18733;DHT22;9495;51.210;2.934;2023-12-29T16:00:31;15.90;99.90
18733;DHT22;9495;51.210;2.934;2023-12-29T16:03:02;16.60;99.90
18733;DHT22;9495;51.210;2.934;2023-12-29T16:05:31;17.60;99.90
18733;DHT22;9495;51.210;2.934;2023-12-29T16:08:00;17.50;99.90